Alton, United Kingdom
Current Conditions -  °F | °C
As of 9:50 AM on Saturday 22 Nov 2014 (Local Time) from EGVO Reporting Station
Light Rain Light Rain  
Wind Chill: 55°   Ceiling: 700
Heat Index: 55°   Visibility: 6mi
Dew Point: 55°   Wind: 10mph
Humidity: 100%   Direction: 170°S
Pressure: 29.88"   Gusts: NA
Location:  51.15°N, 0.97°W
Report Text: EGVO 220950Z 17009KT 9999 -RA FEW004 OVC007 13/13 Q1012 GRN
Loading
Personal Weather Stations






























Interactive Weather Map New forecast layout! Learn more

10-Day Weather Forecast

Advertisements
Track Severe Weather on mobile